Terminal Aerodrome Forecast
Issued by NWS

Home | Current Version | Previous Version | Text Only | Print | Product List | Glossary Off
Versions: 1 2 3 4 5 6 7 8 9 10 11 12 13 14 15 16 17 18 19 20 21 22 23 24 25 26

000
FTUS43 KGRB 250500
TAFATW
TAF
KATW 250531Z 2506/2606 30012G18KT 2SM -SN SCT012 OVC022
      TEMPO 2506/2508 3/4SM -SN OVC010
     FM250800 30012G18KT 3SM -SN OVC008
     FM250900 30009KT 5SM -SN OVC015
     FM251300 29008KT P6SM OVC020
     FM252000 26007KT P6SM FEW030 BKN120
     FM260000 22003KT P6SM SCT100=

USA.gov is the U.S. government's official web portal to all federal, state and local government web resources and services.